sensor_id;sensor_type;location;lat;lon;timestamp;pressure;altitude;pressure_sealevel;temperature;humidity
77824;BME280;67015;46.242;6.028;2023-02-28T00:29:14;96824.0;;;-0.04;70.74
77824;BME280;67015;46.242;6.028;2023-02-28T00:59:14;96817.0;;;-0.01;70.63
77824;BME280;67015;46.242;6.028;2023-02-28T01:29:14;96812.0;;;-0.05;71.08
77824;BME280;67015;46.242;6.028;2023-02-28T01:59:14;96817.0;;;-0.1;70.89
77824;BME280;67015;46.242;6.028;2023-02-28T02:59:14;96792.0;;;-0.2;72.02
77824;BME280;67015;46.242;6.028;2023-02-28T03:29:15;96789.0;;;-0.23;71.9
77824;BME280;67015;46.242;6.028;2023-02-28T03:59:19;96790.0;;;-0.24;71.79
77824;BME280;67015;46.242;6.028;2023-02-28T04:29:14;96803.0;;;-0.3;72.17
77824;BME280;67015;46.242;6.028;2023-02-28T06:29:14;96852.0;;;-0.34;73.66
77824;BME280;67015;46.242;6.028;2023-02-28T06:59:14;96865.0;;;-0.08;74.42
77824;BME280;67015;46.242;6.028;2023-02-28T07:29:13;96881.0;;;0.2;72.75
77824;BME280;67015;46.242;6.028;2023-02-28T07:59:13;96890.0;;;0.48;72.61
77824;BME280;67015;46.242;6.028;2023-02-28T08:29:13;96898.0;;;0.68;71.93
77824;BME280;67015;46.242;6.028;2023-02-28T08:59:13;96899.0;;;1.36;67.8
77824;BME280;67015;46.242;6.028;2023-02-28T09:29:13;96888.0;;;2.6;61.75
77824;BME280;67015;46.242;6.028;2023-02-28T09:59:15;96919.0;;;2.74;59.91
77824;BME280;67015;46.242;6.028;2023-02-28T10:29:13;96922.0;;;3.88;57.32
77824;BME280;67015;46.242;6.028;2023-02-28T10:59:26;96925.0;;;3.77;59.54
77824;BME280;67015;46.242;6.028;2023-02-28T11:29:17;96918.0;;;3.55;60.58
77824;BME280;67015;46.242;6.028;2023-02-28T11:59:20;96900.0;;;4.1;59.2
77824;BME280;67015;46.242;6.028;2023-02-28T12:29:15;96880.0;;;5.18;58.88
77824;BME280;67015;46.242;6.028;2023-02-28T12:59:15;96854.0;;;5.24;56.84
77824;BME280;67015;46.242;6.028;2023-02-28T13:29:21;96838.0;;;4.85;58.49
77824;BME280;67015;46.242;6.028;2023-02-28T13:59:16;96864.0;;;4.64;57.17
77824;BME280;67015;46.242;6.028;2023-02-28T14:29:17;96857.0;;;4.37;59.06
77824;BME280;67015;46.242;6.028;2023-02-28T15:29:13;96857.0;;;4.26;59.13
77824;BME280;67015;46.242;6.028;2023-02-28T16:29:13;96863.0;;;4.32;59.16
77824;BME280;67015;46.242;6.028;2023-02-28T16:59:13;96908.0;;;3.4;60.72
77824;BME280;67015;46.242;6.028;2023-02-28T17:29:13;96927.0;;;2.8;63.02
77824;BME280;67015;46.242;6.028;2023-02-28T17:59:12;96965.0;;;2.06;65.8
77824;BME280;67015;46.242;6.028;2023-02-28T18:29:15;96998.0;;;1.74;68.07
77824;BME280;67015;46.242;6.028;2023-02-28T18:59:13;97021.0;;;1.65;68.02
77824;BME280;67015;46.242;6.028;2023-02-28T19:29:12;97031.0;;;1.35;67.66
77824;BME280;67015;46.242;6.028;2023-02-28T19:59:13;97036.0;;;1.14;67.91
77824;BME280;67015;46.242;6.028;2023-02-28T20:29:13;97035.0;;;0.9;69.37
77824;BME280;67015;46.242;6.028;2023-02-28T20:59:12;97031.0;;;0.73;70.33
77824;BME280;67015;46.242;6.028;2023-02-28T21:29:13;97047.0;;;0.7;70.31
77824;BME280;67015;46.242;6.028;2023-02-28T21:59:13;97041.0;;;0.64;71.5
77824;BME280;67015;46.242;6.028;2023-02-28T22:29:12;97028.0;;;0.59;70.67
77824;BME280;67015;46.242;6.028;2023-02-28T22:59:13;97026.0;;;0.61;71.12
